sensor_id;sensor_type;location;lat;lon;timestamp;P1;durP1;ratioP1;P2;durP2;ratioP2
14358;SDS011;7263;49.418;11.064;2022-07-21T00:01:54;4.03;;;3.47;;
14358;SDS011;7263;49.418;11.064;2022-07-21T00:04:21;4.28;;;3.80;;
14358;SDS011;7263;49.418;11.064;2022-07-21T00:06:48;4.93;;;4.22;;
14358;SDS011;7263;49.418;11.064;2022-07-21T00:09:16;5.57;;;4.00;;
14358;SDS011;7263;49.418;11.064;2022-07-21T00:11:43;5.05;;;3.67;;
14358;SDS011;7263;49.418;11.064;2022-07-21T00:14:12;4.22;;;3.55;;
14358;SDS011;7263;49.418;11.064;2022-07-21T00:16:40;3.58;;;3.25;;
14358;SDS011;7263;49.418;11.064;2022-07-21T00:19:07;5.05;;;3.00;;
14358;SDS011;7263;49.418;11.064;2022-07-21T00:21:35;3.17;;;2.95;;
14358;SDS011;7263;49.418;11.064;2022-07-21T00:24:02;4.82;;;2.63;;
14358;SDS011;7263;49.418;11.064;2022-07-21T00:26:29;4.13;;;3.00;;
14358;SDS011;7263;49.418;11.064;2022-07-21T00:28:56;3.03;;;2.65;;
14358;SDS011;7263;49.418;11.064;2022-07-21T00:31:25;4.20;;;3.13;;
14358;SDS011;7263;49.418;11.064;2022-07-21T00:33:52;3.63;;;2.53;;
14358;SDS011;7263;49.418;11.064;2022-07-21T00:36:19;2.90;;;2.42;;
14358;SDS011;7263;49.418;11.064;2022-07-21T00:38:47;3.10;;;2.38;;
14358;SDS011;7263;49.418;11.064;2022-07-21T00:41:14;4.18;;;2.53;;
14358;SDS011;7263;49.418;11.064;2022-07-21T00:43:41;2.65;;;2.45;;
14358;SDS011;7263;49.418;11.064;2022-07-21T00:46:08;3.00;;;2.28;;
14358;SDS011;7263;49.418;11.064;2022-07-21T00:48:37;3.05;;;2.63;;
14358;SDS011;7263;49.418;11.064;2022-07-21T00:51:04;2.92;;;2.40;;
14358;SDS011;7263;49.418;11.064;2022-07-21T00:53:31;2.90;;;2.33;;
14358;SDS011;7263;49.418;11.064;2022-07-21T00:55:58;3.38;;;3.03;;
14358;SDS011;7263;49.418;11.064;2022-07-21T00:58:26;3.72;;;2.90;;
14358;SDS011;7263;49.418;11.064;2022-07-21T01:00:53;3.03;;;2.83;;
14358;SDS011;7263;49.418;11.064;2022-07-21T01:03:20;7.57;;;3.15;;
14358;SDS011;7263;49.418;11.064;2022-07-21T01:05:48;3.65;;;3.22;;
14358;SDS011;7263;49.418;11.064;2022-07-21T01:08:16;5.43;;;3.25;;
14358;SDS011;7263;49.418;11.064;2022-07-21T01:10:44;5.93;;;3.22;;
14358;SDS011;7263;49.418;11.064;2022-07-21T01:13:11;4.55;;;2.95;;
14358;SDS011;7263;49.418;11.064;2022-07-21T01:15:38;6.57;;;3.72;;
14358;SDS011;7263;49.418;11.064;2022-07-21T01:18:05;7.00;;;3.80;;
14358;SDS011;7263;49.418;11.064;2022-07-21T01:20:34;6.90;;;3.33;;
14358;SDS011;7263;49.418;11.064;2022-07-21T01:23:03;5.03;;;4.32;;
14358;SDS011;7263;49.418;11.064;2022-07-21T01:25:30;5.70;;;4.75;;
14358;SDS011;7263;49.418;11.064;2022-07-21T01:27:57;5.97;;;4.28;;
14358;SDS011;7263;49.418;11.064;2022-07-21T01:30:24;6.15;;;4.38;;
14358;SDS011;7263;49.418;11.064;2022-07-21T01:32:51;5.95;;;4.40;;
14358;SDS011;7263;49.418;11.064;2022-07-21T01:35:19;6.30;;;4.78;;
14358;SDS011;7263;49.418;11.064;2022-07-21T01:37:46;7.80;;;5.90;;
14358;SDS011;7263;49.418;11.064;2022-07-21T01:40:16;8.23;;;7.45;;
14358;SDS011;7263;49.418;11.064;2022-07-21T01:43:01;7.47;;;6.68;;
14358;SDS011;7263;49.418;11.064;2022-07-21T01:45:28;6.65;;;5.93;;
14358;SDS011;7263;49.418;11.064;2022-07-21T01:47:56;6.95;;;4.72;;
14358;SDS011;7263;49.418;11.064;2022-07-21T01:50:23;5.55;;;4.70;;
14358;SDS011;7263;49.418;11.064;2022-07-21T01:52:53;7.00;;;4.65;;
14358;SDS011;7263;49.418;11.064;2022-07-21T01:55:22;5.60;;;4.43;;
14358;SDS011;7263;49.418;11.064;2022-07-21T01:57:49;5.78;;;5.18;;
14358;SDS011;7263;49.418;11.064;2022-07-21T02:00:17;5.63;;;4.97;;
14358;SDS011;7263;49.418;11.064;2022-07-21T02:02:44;4.85;;;4.45;;
14358;SDS011;7263;49.418;11.064;2022-07-21T02:05:12;5.40;;;4.45;;
14358;SDS011;7263;49.418;11.064;2022-07-21T02:07:39;18.45;;;14.32;;
14358;SDS011;7263;49.418;11.064;2022-07-21T02:10:06;18.65;;;16.65;;
14358;SDS011;7263;49.418;11.064;2022-07-21T02:12:35;10.93;;;9.30;;
14358;SDS011;7263;49.418;11.064;2022-07-21T02:15:02;6.57;;;5.18;;
14358;SDS011;7263;49.418;11.064;2022-07-21T02:17:30;7.20;;;5.03;;
14358;SDS011;7263;49.418;11.064;2022-07-21T02:19:57;8.73;;;6.85;;
14358;SDS011;7263;49.418;11.064;2022-07-21T02:22:24;6.65;;;5.78;;
14358;SDS011;7263;49.418;11.064;2022-07-21T02:24:51;9.35;;;8.43;;
14358;SDS011;7263;49.418;11.064;2022-07-21T02:27:18;7.82;;;7.05;;
14358;SDS011;7263;49.418;11.064;2022-07-21T02:29:46;6.18;;;5.35;;
14358;SDS011;7263;49.418;11.064;2022-07-21T02:32:13;5.90;;;5.30;;
14358;SDS011;7263;49.418;11.064;2022-07-21T02:34:40;6.30;;;5.70;;
14358;SDS011;7263;49.418;11.064;2022-07-21T02:37:07;6.75;;;5.15;;
14358;SDS011;7263;49.418;11.064;2022-07-21T02:39:34;4.82;;;4.43;;
14358;SDS011;7263;49.418;11.064;2022-07-21T02:42:01;10.02;;;5.28;;
14358;SDS011;7263;49.418;11.064;2022-07-21T02:44:28;6.72;;;5.28;;
14358;SDS011;7263;49.418;11.064;2022-07-21T02:46:57;5.55;;;5.05;;
14358;SDS011;7263;49.418;11.064;2022-07-21T02:49:24;5.50;;;4.97;;
14358;SDS011;7263;49.418;11.064;2022-07-21T02:51:51;6.20;;;5.63;;
14358;SDS011;7263;49.418;11.064;2022-07-21T02:54:18;6.13;;;5.07;;
14358;SDS011;7263;49.418;11.064;2022-07-21T02:56:45;5.50;;;5.00;;
14358;SDS011;7263;49.418;11.064;2022-07-21T02:59:12;6.20;;;5.60;;
14358;SDS011;7263;49.418;11.064;2022-07-21T03:01:39;6.50;;;5.90;;
14358;SDS011;7263;49.418;11.064;2022-07-21T03:04:07;7.97;;;5.57;;
14358;SDS011;7263;49.418;11.064;2022-07-21T03:06:34;6.15;;;5.55;;
14358;SDS011;7263;49.418;11.064;2022-07-21T03:09:02;6.10;;;5.50;;
14358;SDS011;7263;49.418;11.064;2022-07-21T03:11:29;5.80;;;5.20;;
14358;SDS011;7263;49.418;11.064;2022-07-21T03:13:57;5.95;;;5.28;;
14358;SDS011;7263;49.418;11.064;2022-07-21T03:16:24;6.45;;;5.85;;
14358;SDS011;7263;49.418;11.064;2022-07-21T03:18:51;6.18;;;5.43;;
14358;SDS011;7263;49.418;11.064;2022-07-21T03:21:19;7.25;;;6.55;;
14358;SDS011;7263;49.418;11.064;2022-07-21T03:23:47;6.50;;;5.53;;
14358;SDS011;7263;49.418;11.064;2022-07-21T03:26:14;6.72;;;5.78;;
14358;SDS011;7263;49.418;11.064;2022-07-21T03:28:42;6.03;;;5.53;;
14358;SDS011;7263;49.418;11.064;2022-07-21T03:31:09;5.65;;;5.15;;
14358;SDS011;7263;49.418;11.064;2022-07-21T03:33:37;7.07;;;5.30;;
14358;SDS011;7263;49.418;11.064;2022-07-21T03:36:04;5.88;;;5.38;;
14358;SDS011;7263;49.418;11.064;2022-07-21T03:38:33;7.25;;;5.63;;
14358;SDS011;7263;49.418;11.064;2022-07-21T03:41:00;7.18;;;6.53;;
14358;SDS011;7263;49.418;11.064;2022-07-21T03:43:27;6.15;;;5.65;;
14358;SDS011;7263;49.418;11.064;2022-07-21T03:45:54;7.05;;;5.95;;
14358;SDS011;7263;49.418;11.064;2022-07-21T03:48:21;7.15;;;6.30;;
14358;SDS011;7263;49.418;11.064;2022-07-21T03:50:48;7.88;;;6.32;;
14358;SDS011;7263;49.418;11.064;2022-07-21T03:53:15;7.55;;;6.20;;
14358;SDS011;7263;49.418;11.064;2022-07-21T03:55:43;7.03;;;6.43;;
14358;SDS011;7263;49.418;11.064;2022-07-21T03:58:11;8.00;;;7.30;;
14358;SDS011;7263;49.418;11.064;2022-07-21T04:00:39;8.73;;;7.93;;
14358;SDS011;7263;49.418;11.064;2022-07-21T04:03:08;9.35;;;8.55;;
14358;SDS011;7263;49.418;11.064;2022-07-21T04:05:36;8.93;;;7.90;;
14358;SDS011;7263;49.418;11.064;2022-07-21T04:08:05;8.95;;;8.15;;
14358;SDS011;7263;49.418;11.064;2022-07-21T04:10:34;9.73;;;8.73;;
14358;SDS011;7263;49.418;11.064;2022-07-21T04:13:05;9.60;;;8.68;;
14358;SDS011;7263;49.418;11.064;2022-07-21T04:15:33;9.35;;;8.63;;
14358;SDS011;7263;49.418;11.064;2022-07-21T04:18:00;10.75;;;9.63;;
14358;SDS011;7263;49.418;11.064;2022-07-21T04:20:27;10.30;;;9.18;;
14358;SDS011;7263;49.418;11.064;2022-07-21T04:22:54;10.50;;;9.60;;
14358;SDS011;7263;49.418;11.064;2022-07-21T04:25:22;9.85;;;9.02;;
14358;SDS011;7263;49.418;11.064;2022-07-21T04:27:50;10.95;;;9.95;;
14358;SDS011;7263;49.418;11.064;2022-07-21T04:30:20;10.75;;;9.70;;
14358;SDS011;7263;49.418;11.064;2022-07-21T04:32:47;11.50;;;10.40;;
14358;SDS011;7263;49.418;11.064;2022-07-21T04:35:14;11.35;;;10.25;;
14358;SDS011;7263;49.418;11.064;2022-07-21T04:37:42;11.75;;;10.57;;
14358;SDS011;7263;49.418;11.064;2022-07-21T04:40:10;11.13;;;10.13;;
14358;SDS011;7263;49.418;11.064;2022-07-21T04:42:38;12.65;;;10.82;;
14358;SDS011;7263;49.418;11.064;2022-07-21T04:45:05;11.80;;;10.70;;
14358;SDS011;7263;49.418;11.064;2022-07-21T04:47:41;11.30;;;10.30;;
14358;SDS011;7263;49.418;11.064;2022-07-21T04:50:09;13.52;;;12.32;;
14358;SDS011;7263;49.418;11.064;2022-07-21T04:52:36;13.20;;;12.00;;
14358;SDS011;7263;49.418;11.064;2022-07-21T04:55:04;13.32;;;12.05;;
14358;SDS011;7263;49.418;11.064;2022-07-21T04:57:31;13.57;;;12.32;;
14358;SDS011;7263;49.418;11.064;2022-07-21T04:59:58;13.02;;;11.88;;
14358;SDS011;7263;49.418;11.064;2022-07-21T05:02:28;13.05;;;11.85;;
14358;SDS011;7263;49.418;11.064;2022-07-21T05:04:56;14.13;;;12.70;;
14358;SDS011;7263;49.418;11.064;2022-07-21T05:07:23;15.20;;;13.18;;
14358;SDS011;7263;49.418;11.064;2022-07-21T05:09:50;15.57;;;14.20;;
14358;SDS011;7263;49.418;11.064;2022-07-21T05:12:17;14.27;;;12.95;;
14358;SDS011;7263;49.418;11.064;2022-07-21T05:14:44;13.35;;;12.18;;
14358;SDS011;7263;49.418;11.064;2022-07-21T05:17:11;15.02;;;13.52;;
14358;SDS011;7263;49.418;11.064;2022-07-21T05:19:39;15.30;;;13.90;;
14358;SDS011;7263;49.418;11.064;2022-07-21T05:22:09;15.18;;;13.73;;
14358;SDS011;7263;49.418;11.064;2022-07-21T05:24:36;16.23;;;14.55;;
14358;SDS011;7263;49.418;11.064;2022-07-21T05:27:03;16.02;;;14.30;;
14358;SDS011;7263;49.418;11.064;2022-07-21T05:29:30;17.23;;;15.05;;
14358;SDS011;7263;49.418;11.064;2022-07-21T05:31:57;17.17;;;15.52;;
14358;SDS011;7263;49.418;11.064;2022-07-21T05:34:24;16.77;;;15.07;;
14358;SDS011;7263;49.418;11.064;2022-07-21T05:36:51;17.70;;;16.10;;
14358;SDS011;7263;49.418;11.064;2022-07-21T05:39:20;17.50;;;15.77;;
14358;SDS011;7263;49.418;11.064;2022-07-21T05:41:47;16.90;;;15.20;;
14358;SDS011;7263;49.418;11.064;2022-07-21T05:44:14;17.67;;;15.73;;
14358;SDS011;7263;49.418;11.064;2022-07-21T05:46:41;16.73;;;15.02;;
14358;SDS011;7263;49.418;11.064;2022-07-21T05:49:08;18.08;;;16.25;;
14358;SDS011;7263;49.418;11.064;2022-07-21T05:51:35;18.17;;;16.38;;
14358;SDS011;7263;49.418;11.064;2022-07-21T05:54:02;17.52;;;15.90;;
14358;SDS011;7263;49.418;11.064;2022-07-21T05:56:30;17.02;;;15.43;;
14358;SDS011;7263;49.418;11.064;2022-07-21T05:58:57;18.60;;;16.77;;
14358;SDS011;7263;49.418;11.064;2022-07-21T06:01:24;17.88;;;16.15;;
14358;SDS011;7263;49.418;11.064;2022-07-21T06:03:52;18.92;;;17.02;;
14358;SDS011;7263;49.418;11.064;2022-07-21T06:06:19;19.50;;;17.70;;
14358;SDS011;7263;49.418;11.064;2022-07-21T06:08:48;18.98;;;17.23;;
14358;SDS011;7263;49.418;11.064;2022-07-21T06:11:17;19.65;;;17.77;;
14358;SDS011;7263;49.418;11.064;2022-07-21T06:13:46;19.02;;;17.20;;
14358;SDS011;7263;49.418;11.064;2022-07-21T06:16:13;19.88;;;17.85;;
14358;SDS011;7263;49.418;11.064;2022-07-21T06:18:40;20.27;;;18.38;;
14358;SDS011;7263;49.418;11.064;2022-07-21T06:21:08;18.92;;;17.10;;
14358;SDS011;7263;49.418;11.064;2022-07-21T06:23:35;18.42;;;16.52;;
14358;SDS011;7263;49.418;11.064;2022-07-21T06:26:02;16.85;;;15.30;;
14358;SDS011;7263;49.418;11.064;2022-07-21T06:28:29;17.48;;;15.82;;
14358;SDS011;7263;49.418;11.064;2022-07-21T06:30:58;17.05;;;15.50;;
14358;SDS011;7263;49.418;11.064;2022-07-21T06:33:25;17.27;;;15.73;;
14358;SDS011;7263;49.418;11.064;2022-07-21T06:35:52;17.42;;;15.75;;
14358;SDS011;7263;49.418;11.064;2022-07-21T06:38:19;17.35;;;15.75;;
14358;SDS011;7263;49.418;11.064;2022-07-21T06:40:46;16.65;;;15.13;;
14358;SDS011;7263;49.418;11.064;2022-07-21T06:43:13;16.60;;;15.00;;
14358;SDS011;7263;49.418;11.064;2022-07-21T06:45:41;17.00;;;15.38;;
14358;SDS011;7263;49.418;11.064;2022-07-21T06:48:09;16.30;;;14.70;;
14358;SDS011;7263;49.418;11.064;2022-07-21T06:50:37;16.08;;;14.65;;
14358;SDS011;7263;49.418;11.064;2022-07-21T06:53:04;15.35;;;13.88;;
14358;SDS011;7263;49.418;11.064;2022-07-21T06:55:32;14.85;;;13.52;;
14358;SDS011;7263;49.418;11.064;2022-07-21T06:58:07;15.85;;;14.00;;
14358;SDS011;7263;49.418;11.064;2022-07-21T07:00:35;14.93;;;13.40;;
14358;SDS011;7263;49.418;11.064;2022-07-21T07:03:02;15.95;;;14.60;;
14358;SDS011;7263;49.418;11.064;2022-07-21T07:05:31;15.20;;;13.77;;
14358;SDS011;7263;49.418;11.064;2022-07-21T07:07:58;13.43;;;12.05;;
14358;SDS011;7263;49.418;11.064;2022-07-21T07:10:25;15.52;;;13.80;;
14358;SDS011;7263;49.418;11.064;2022-07-21T07:12:52;14.63;;;13.43;;
14358;SDS011;7263;49.418;11.064;2022-07-21T07:15:20;14.93;;;13.63;;
14358;SDS011;7263;49.418;11.064;2022-07-21T07:17:48;14.63;;;13.32;;
14358;SDS011;7263;49.418;11.064;2022-07-21T07:20:15;14.27;;;12.98;;
14358;SDS011;7263;49.418;11.064;2022-07-21T07:22:43;14.02;;;12.93;;
14358;SDS011;7263;49.418;11.064;2022-07-21T07:25:11;14.63;;;13.27;;
14358;SDS011;7263;49.418;11.064;2022-07-21T07:27:41;15.25;;;13.75;;
14358;SDS011;7263;49.418;11.064;2022-07-21T07:30:09;14.60;;;13.35;;
14358;SDS011;7263;49.418;11.064;2022-07-21T07:32:36;15.20;;;13.70;;
14358;SDS011;7263;49.418;11.064;2022-07-21T07:35:05;15.10;;;13.73;;
14358;SDS011;7263;49.418;11.064;2022-07-21T07:37:33;14.82;;;13.63;;
14358;SDS011;7263;49.418;11.064;2022-07-21T07:40:01;15.52;;;13.38;;
14358;SDS011;7263;49.418;11.064;2022-07-21T07:42:28;15.20;;;13.68;;
14358;SDS011;7263;49.418;11.064;2022-07-21T07:44:55;15.18;;;13.68;;
14358;SDS011;7263;49.418;11.064;2022-07-21T07:47:23;14.70;;;13.18;;
14358;SDS011;7263;49.418;11.064;2022-07-21T07:49:50;15.35;;;13.68;;
14358;SDS011;7263;49.418;11.064;2022-07-21T07:52:18;15.82;;;14.10;;
14358;SDS011;7263;49.418;11.064;2022-07-21T07:54:45;14.82;;;13.57;;
14358;SDS011;7263;49.418;11.064;2022-07-21T07:57:13;14.52;;;13.27;;
14358;SDS011;7263;49.418;11.064;2022-07-21T07:59:40;14.57;;;13.30;;
14358;SDS011;7263;49.418;11.064;2022-07-21T08:02:08;14.18;;;12.88;;
14358;SDS011;7263;49.418;11.064;2022-07-21T08:04:35;13.85;;;12.60;;
14358;SDS011;7263;49.418;11.064;2022-07-21T08:07:02;14.65;;;13.25;;
14358;SDS011;7263;49.418;11.064;2022-07-21T08:09:30;13.13;;;11.93;;
14358;SDS011;7263;49.418;11.064;2022-07-21T08:11:57;13.23;;;11.93;;
14358;SDS011;7263;49.418;11.064;2022-07-21T08:14:25;13.40;;;12.10;;
14358;SDS011;7263;49.418;11.064;2022-07-21T08:16:53;13.18;;;11.88;;
14358;SDS011;7263;49.418;11.064;2022-07-21T08:19:20;14.52;;;12.45;;
14358;SDS011;7263;49.418;11.064;2022-07-21T08:21:47;13.32;;;12.13;;
14358;SDS011;7263;49.418;11.064;2022-07-21T08:24:14;12.40;;;11.25;;
14358;SDS011;7263;49.418;11.064;2022-07-21T08:26:41;13.02;;;11.93;;
14358;SDS011;7263;49.418;11.064;2022-07-21T08:29:09;12.35;;;11.20;;
14358;SDS011;7263;49.418;11.064;2022-07-21T08:31:38;11.98;;;11.00;;
14358;SDS011;7263;49.418;11.064;2022-07-21T08:34:05;11.85;;;10.85;;
14358;SDS011;7263;49.418;11.064;2022-07-21T08:36:32;11.07;;;10.18;;
14358;SDS011;7263;49.418;11.064;2022-07-21T08:38:59;11.13;;;10.13;;
14358;SDS011;7263;49.418;11.064;2022-07-21T08:41:26;10.88;;;9.88;;
14358;SDS011;7263;49.418;11.064;2022-07-21T08:43:54;10.82;;;9.88;;
14358;SDS011;7263;49.418;11.064;2022-07-21T08:46:22;10.40;;;9.50;;
14358;SDS011;7263;49.418;11.064;2022-07-21T08:48:50;10.73;;;9.77;;
14358;SDS011;7263;49.418;11.064;2022-07-21T08:51:18;10.02;;;9.02;;
14358;SDS011;7263;49.418;11.064;2022-07-21T08:53:45;9.85;;;8.95;;
14358;SDS011;7263;49.418;11.064;2022-07-21T08:59:16;9.15;;;8.25;;
14358;SDS011;7263;49.418;11.064;2022-07-21T09:01:43;8.80;;;8.02;;
14358;SDS011;7263;49.418;11.064;2022-07-21T09:04:22;8.30;;;7.55;;
14358;SDS011;7263;49.418;11.064;2022-07-21T09:06:54;8.93;;;8.02;;
14358;SDS011;7263;49.418;11.064;2022-07-21T09:09:22;8.70;;;7.90;;
14358;SDS011;7263;49.418;11.064;2022-07-21T09:11:50;9.07;;;8.27;;
14358;SDS011;7263;49.418;11.064;2022-07-21T09:14:18;9.57;;;8.50;;
14358;SDS011;7263;49.418;11.064;2022-07-21T09:16:47;8.60;;;7.72;;
14358;SDS011;7263;49.418;11.064;2022-07-21T09:19:16;9.10;;;8.27;;
14358;SDS011;7263;49.418;11.064;2022-07-21T09:21:45;9.93;;;7.00;;
14358;SDS011;7263;49.418;11.064;2022-07-21T09:24:13;10.32;;;7.18;;
14358;SDS011;7263;49.418;11.064;2022-07-21T09:26:56;7.47;;;6.78;;
14358;SDS011;7263;49.418;11.064;2022-07-21T09:29:24;7.10;;;6.40;;
14358;SDS011;7263;49.418;11.064;2022-07-21T09:31:52;7.15;;;6.55;;
14358;SDS011;7263;49.418;11.064;2022-07-21T09:34:19;6.70;;;6.20;;
14358;SDS011;7263;49.418;11.064;2022-07-21T09:36:57;6.85;;;6.28;;
14358;SDS011;7263;49.418;11.064;2022-07-21T09:39:40;6.20;;;5.70;;
14358;SDS011;7263;49.418;11.064;2022-07-21T09:42:12;6.95;;;5.97;;
14358;SDS011;7263;49.418;11.064;2022-07-21T09:44:43;6.50;;;5.90;;
14358;SDS011;7263;49.418;11.064;2022-07-21T09:47:12;6.43;;;5.82;;
14358;SDS011;7263;49.418;11.064;2022-07-21T09:49:40;9.02;;;6.30;;
14358;SDS011;7263;49.418;11.064;2022-07-21T09:52:18;6.30;;;5.78;;
14358;SDS011;7263;49.418;11.064;2022-07-21T09:54:46;7.28;;;6.25;;
14358;SDS011;7263;49.418;11.064;2022-07-21T09:57:13;6.47;;;5.97;;
14358;SDS011;7263;49.418;11.064;2022-07-21T09:59:42;8.05;;;6.28;;
14358;SDS011;7263;49.418;11.064;2022-07-21T10:02:10;6.97;;;5.78;;
14358;SDS011;7263;49.418;11.064;2022-07-21T10:04:37;6.88;;;6.28;;
14358;SDS011;7263;49.418;11.064;2022-07-21T10:07:04;6.85;;;6.18;;
14358;SDS011;7263;49.418;11.064;2022-07-21T10:09:33;6.72;;;6.13;;
14358;SDS011;7263;49.418;11.064;2022-07-21T10:12:00;6.38;;;5.78;;
14358;SDS011;7263;49.418;11.064;2022-07-21T10:14:28;6.57;;;5.90;;
14358;SDS011;7263;49.418;11.064;2022-07-21T10:16:55;6.25;;;5.65;;
14358;SDS011;7263;49.418;11.064;2022-07-21T10:19:23;8.57;;;6.63;;
14358;SDS011;7263;49.418;11.064;2022-07-21T10:21:55;6.57;;;5.88;;
14358;SDS011;7263;49.418;11.064;2022-07-21T10:24:27;7.80;;;6.40;;
14358;SDS011;7263;49.418;11.064;2022-07-21T10:27:03;7.75;;;6.65;;
14358;SDS011;7263;49.418;11.064;2022-07-21T10:29:54;7.32;;;6.63;;
14358;SDS011;7263;49.418;11.064;2022-07-21T10:32:24;6.60;;;6.10;;
14358;SDS011;7263;49.418;11.064;2022-07-21T10:34:52;6.70;;;6.03;;
14358;SDS011;7263;49.418;11.064;2022-07-21T10:45:41;5.20;;;4.70;;
14358;SDS011;7263;49.418;11.064;2022-07-21T10:50:57;5.20;;;4.75;;
14358;SDS011;7263;49.418;11.064;2022-07-21T10:53:24;4.13;;;3.83;;
14358;SDS011;7263;49.418;11.064;2022-07-21T10:55:52;4.70;;;4.28;;
14358;SDS011;7263;49.418;11.064;2022-07-21T10:58:25;6.00;;;4.50;;
14358;SDS011;7263;49.418;11.064;2022-07-21T11:00:54;4.70;;;4.07;;
14358;SDS011;7263;49.418;11.064;2022-07-21T11:03:23;4.95;;;4.00;;
14358;SDS011;7263;49.418;11.064;2022-07-21T11:08:47;3.67;;;3.38;;
14358;SDS011;7263;49.418;11.064;2022-07-21T11:11:16;3.40;;;3.05;;
14358;SDS011;7263;49.418;11.064;2022-07-21T11:14:00;3.45;;;3.15;;
14358;SDS011;7263;49.418;11.064;2022-07-21T11:19:27;4.03;;;2.90;;
14358;SDS011;7263;49.418;11.064;2022-07-21T11:22:01;3.63;;;3.30;;
14358;SDS011;7263;49.418;11.064;2022-07-21T11:24:28;3.35;;;3.10;;
14358;SDS011;7263;49.418;11.064;2022-07-21T11:26:56;3.95;;;3.33;;
14358;SDS011;7263;49.418;11.064;2022-07-21T11:29:24;3.67;;;3.38;;
14358;SDS011;7263;49.418;11.064;2022-07-21T11:31:52;4.18;;;3.50;;
14358;SDS011;7263;49.418;11.064;2022-07-21T11:34:19;3.70;;;3.40;;
14358;SDS011;7263;49.418;11.064;2022-07-21T11:36:48;3.95;;;3.65;;
14358;SDS011;7263;49.418;11.064;2022-07-21T11:39:24;4.95;;;3.72;;
14358;SDS011;7263;49.418;11.064;2022-07-21T11:41:51;4.03;;;3.60;;
14358;SDS011;7263;49.418;11.064;2022-07-21T11:44:23;3.55;;;3.25;;
14358;SDS011;7263;49.418;11.064;2022-07-21T11:46:51;3.97;;;3.67;;
14358;SDS011;7263;49.418;11.064;2022-07-21T11:49:19;3.78;;;3.47;;
14358;SDS011;7263;49.418;11.064;2022-07-21T11:51:51;4.15;;;3.75;;
14358;SDS011;7263;49.418;11.064;2022-07-21T11:54:33;3.50;;;3.30;;
14358;SDS011;7263;49.418;11.064;2022-07-21T11:57:01;3.58;;;3.28;;
14358;SDS011;7263;49.418;11.064;2022-07-21T11:59:30;3.00;;;2.80;;
14358;SDS011;7263;49.418;11.064;2022-07-21T12:02:01;3.83;;;3.53;;
14358;SDS011;7263;49.418;11.064;2022-07-21T12:04:32;3.67;;;3.38;;
14358;SDS011;7263;49.418;11.064;2022-07-21T12:07:03;3.95;;;3.20;;
14358;SDS011;7263;49.418;11.064;2022-07-21T12:09:31;3.40;;;3.10;;
14358;SDS011;7263;49.418;11.064;2022-07-21T12:11:59;3.40;;;3.10;;
14358;SDS011;7263;49.418;11.064;2022-07-21T12:14:39;3.47;;;3.20;;
14358;SDS011;7263;49.418;11.064;2022-07-21T12:17:07;4.13;;;3.53;;
14358;SDS011;7263;49.418;11.064;2022-07-21T12:19:34;4.20;;;3.28;;
14358;SDS011;7263;49.418;11.064;2022-07-21T12:22:03;5.57;;;3.75;;
14358;SDS011;7263;49.418;11.064;2022-07-21T12:24:50;4.13;;;3.38;;
14358;SDS011;7263;49.418;11.064;2022-07-21T12:27:17;3.35;;;3.05;;
14358;SDS011;7263;49.418;11.064;2022-07-21T12:29:44;3.97;;;3.60;;
14358;SDS011;7263;49.418;11.064;2022-07-21T12:32:12;3.55;;;3.30;;
14358;SDS011;7263;49.418;11.064;2022-07-21T12:34:49;4.18;;;3.50;;
14358;SDS011;7263;49.418;11.064;2022-07-21T12:37:18;3.80;;;3.40;;
14358;SDS011;7263;49.418;11.064;2022-07-21T12:39:59;4.60;;;3.38;;
14358;SDS011;7263;49.418;11.064;2022-07-21T12:42:28;4.32;;;3.53;;
14358;SDS011;7263;49.418;11.064;2022-07-21T12:44:57;3.60;;;3.30;;
14358;SDS011;7263;49.418;11.064;2022-07-21T12:47:25;5.00;;;3.30;;
14358;SDS011;7263;49.418;11.064;2022-07-21T12:49:58;3.65;;;3.35;;
14358;SDS011;7263;49.418;11.064;2022-07-21T12:52:28;4.03;;;3.40;;
14358;SDS011;7263;49.418;11.064;2022-07-21T12:54:56;4.60;;;3.33;;
14358;SDS011;7263;49.418;11.064;2022-07-21T12:57:25;3.30;;;3.10;;
14358;SDS011;7263;49.418;11.064;2022-07-21T12:59:53;4.25;;;3.22;;
14358;SDS011;7263;49.418;11.064;2022-07-21T13:02:20;3.63;;;3.33;;
14358;SDS011;7263;49.418;11.064;2022-07-21T13:04:47;3.85;;;3.45;;
14358;SDS011;7263;49.418;11.064;2022-07-21T13:07:14;3.58;;;3.28;;
14358;SDS011;7263;49.418;11.064;2022-07-21T13:09:42;4.65;;;3.78;;
14358;SDS011;7263;49.418;11.064;2022-07-21T13:12:10;3.92;;;3.28;;
14358;SDS011;7263;49.418;11.064;2022-07-21T13:14:37;3.88;;;3.35;;
14358;SDS011;7263;49.418;11.064;2022-07-21T13:17:05;3.53;;;3.22;;
14358;SDS011;7263;49.418;11.064;2022-07-21T13:19:32;3.67;;;3.38;;
14358;SDS011;7263;49.418;11.064;2022-07-21T13:22:01;3.55;;;3.30;;
14358;SDS011;7263;49.418;11.064;2022-07-21T13:24:28;3.40;;;3.10;;
14358;SDS011;7263;49.418;11.064;2022-07-21T13:26:57;5.63;;;3.13;;
14358;SDS011;7263;49.418;11.064;2022-07-21T13:29:23;3.50;;;3.28;;
14358;SDS011;7263;49.418;11.064;2022-07-21T13:31:51;3.45;;;3.25;;
14358;SDS011;7263;49.418;11.064;2022-07-21T13:34:18;3.30;;;2.97;;
14358;SDS011;7263;49.418;11.064;2022-07-21T13:36:45;4.45;;;3.50;;
14358;SDS011;7263;49.418;11.064;2022-07-21T13:39:12;4.32;;;3.13;;
14358;SDS011;7263;49.418;11.064;2022-07-21T13:41:39;3.70;;;3.40;;
14358;SDS011;7263;49.418;11.064;2022-07-21T13:44:08;4.07;;;3.30;;
14358;SDS011;7263;49.418;11.064;2022-07-21T13:46:35;3.60;;;3.30;;
14358;SDS011;7263;49.418;11.064;2022-07-21T13:49:02;3.80;;;3.20;;
14358;SDS011;7263;49.418;11.064;2022-07-21T13:51:29;3.63;;;3.35;;
14358;SDS011;7263;49.418;11.064;2022-07-21T13:53:57;4.40;;;3.30;;
14358;SDS011;7263;49.418;11.064;2022-07-21T13:56:24;4.20;;;3.30;;
14358;SDS011;7263;49.418;11.064;2022-07-21T13:58:51;3.58;;;3.28;;
14358;SDS011;7263;49.418;11.064;2022-07-21T14:01:20;3.60;;;3.30;;
14358;SDS011;7263;49.418;11.064;2022-07-21T14:03:47;7.32;;;3.17;;
14358;SDS011;7263;49.418;11.064;2022-07-21T14:06:15;3.63;;;3.33;;
14358;SDS011;7263;49.418;11.064;2022-07-21T14:08:43;6.45;;;3.72;;
14358;SDS011;7263;49.418;11.064;2022-07-21T14:11:10;3.65;;;2.70;;
14358;SDS011;7263;49.418;11.064;2022-07-21T14:13:39;3.28;;;2.97;;
14358;SDS011;7263;49.418;11.064;2022-07-21T14:16:06;4.75;;;3.13;;
14358;SDS011;7263;49.418;11.064;2022-07-21T14:18:35;3.58;;;3.28;;
14358;SDS011;7263;49.418;11.064;2022-07-21T14:21:02;3.83;;;3.13;;
14358;SDS011;7263;49.418;11.064;2022-07-21T14:23:29;3.50;;;3.20;;
14358;SDS011;7263;49.418;11.064;2022-07-21T14:25:58;3.40;;;3.10;;
14358;SDS011;7263;49.418;11.064;2022-07-21T14:28:26;3.40;;;3.10;;
14358;SDS011;7263;49.418;11.064;2022-07-21T14:30:53;3.38;;;3.17;;
14358;SDS011;7263;49.418;11.064;2022-07-21T14:33:20;4.05;;;3.30;;
14358;SDS011;7263;49.418;11.064;2022-07-21T14:35:48;3.22;;;2.90;;
14358;SDS011;7263;49.418;11.064;2022-07-21T14:38:16;4.30;;;3.60;;
14358;SDS011;7263;49.418;11.064;2022-07-21T14:40:45;3.45;;;3.13;;
14358;SDS011;7263;49.418;11.064;2022-07-21T14:43:12;3.83;;;3.47;;
14358;SDS011;7263;49.418;11.064;2022-07-21T14:45:39;3.42;;;3.13;;
14358;SDS011;7263;49.418;11.064;2022-07-21T14:48:06;3.58;;;3.20;;
14358;SDS011;7263;49.418;11.064;2022-07-21T14:50:34;3.40;;;3.10;;
14358;SDS011;7263;49.418;11.064;2022-07-21T14:53:03;4.72;;;3.40;;
14358;SDS011;7263;49.418;11.064;2022-07-21T14:55:31;10.13;;;3.83;;
14358;SDS011;7263;49.418;11.064;2022-07-21T14:57:58;4.70;;;3.45;;
14358;SDS011;7263;49.418;11.064;2022-07-21T15:00:25;4.43;;;3.50;;
14358;SDS011;7263;49.418;11.064;2022-07-21T15:02:53;4.10;;;3.70;;
14358;SDS011;7263;49.418;11.064;2022-07-21T15:05:20;3.85;;;3.35;;
14358;SDS011;7263;49.418;11.064;2022-07-21T15:07:48;4.20;;;3.80;;